Climatologie pour Saint-Brevin les Pins
Jour • Résumé pour mai 3, 2017 Système :  Métrique    Anglais   Mixte
« - 1 jour
+ 1 jour »
Jour Semaine Mois Année Personnalisé
  Maximum : Minimum : Moyenne :
Température sous abri : 19.0 °C 5.9 °C 12.5 °C
Point de rosée : 12.4 °C 5.4 °C 9 °C
Humidité : 98 % 54 % 81 %
Vitesse du vent : 16.1 km/h 0.0 km/h 3.8 km/h
Rafale : 25.7 km/h - -
Direction :- - SE
Pression : 1019.5 hPa 1016.8 hPa -
Précipitations : 0.0 mm    
Historical Graphs
 
 
Tableau de données pour mai 3, 2017
Heure Tempé Pt rosée Pression Vent Vitesse Rafale Humidité Taux pluie (/hr) Soleil
00:00 9.8 °C 8.8 °C 1019.5 hPa Calm   1.6 km/h 93 % 0.0 mm 0 W/m2
00:10 9.6 °C 8.6 °C 1019.5 hPa Calm     94 % 0.0 mm 0 W/m2
00:15 9.5 °C 8.6 °C 1019.2 hPa Calm     94 % 0.0 mm 0 W/m2
00:20 9.6 °C 8.6 °C 1019.2 hPa Calm     94 % 0.0 mm 0 W/m2
00:25 9.7 °C 8.9 °C 1019.5 hPa Calm     95 % 0.0 mm 0 W/m2
00:30 9.7 °C 8.9 °C 1019.5 hPa Calm     95 % 0.0 mm 0 W/m2
00:35 9.7 °C 8.9 °C 1019.2 hPa Calm     95 % 0.0 mm 0 W/m2
00:40 9.6 °C 8.6 °C 1019.2 hPa Calm     94 % 0.0 mm 0 W/m2
00:45 9.6 °C 8.8 °C 1019.2 hPa Calm     95 % 0.0 mm 0 W/m2
00:50 9.5 °C 8.7 °C 1019.2 hPa Calm     95 % 0.0 mm 0 W/m2
00:55 9.6 °C 8.8 °C 1019.2 hPa Calm     95 % 0.0 mm 0 W/m2
01:00 9.6 °C 8.8 °C 1019.2 hPa Calm     95 % 0.0 mm 0 W/m2
01:05 9.7 °C 8.9 °C 1019.2 hPa Calm     95 % 0.0 mm 0 W/m2
01:10 9.6 °C 8.8 °C 1019.2 hPa Calm     95 % 0.0 mm 0 W/m2
01:15 9.5 °C 8.7 °C 1019.2 hPa Calm   1.6 km/h 95 % 0.0 mm 0 W/m2
01:20 9.5 °C 8.7 °C 1019.2 hPa Calm   1.6 km/h 95 % 0.0 mm 0 W/m2
01:25 9.6 °C 8.8 °C 1019.2 hPa Calm     95 % 0.0 mm 0 W/m2
01:30 9.6 °C 8.8 °C 1018.8 hPa Calm     95 % 0.0 mm 0 W/m2
01:35 9.5 °C 8.7 °C 1018.8 hPa Calm     95 % 0.0 mm 0 W/m2
01:40 9.3 °C 8.6 °C 1018.8 hPa Calm     95 % 0.0 mm 0 W/m2
01:45 9.2 °C 8.5 °C 1018.8 hPa Calm     95 % 0.0 mm 0 W/m2
01:50 9.2 °C 8.6 °C 1018.8 hPa Calm     96 % 0.0 mm 0 W/m2
01:55 9.1 °C 8.5 °C 1018.8 hPa Calm   1.6 km/h 96 % 0.0 mm 0 W/m2
02:00 9.1 °C 8.5 °C 1018.8 hPa Calm   1.6 km/h 96 % 0.0 mm 0 W/m2
02:05 9.1 °C 8.5 °C 1018.8 hPa Calm     96 % 0.0 mm 0 W/m2
02:10 9.1 °C 8.5 °C 1018.8 hPa Calm     96 % 0.0 mm 0 W/m2
02:15 9.1 °C 8.5 °C 1018.8 hPa Calm     96 % 0.0 mm 0 W/m2
02:20 9.1 °C 8.5 °C 1018.8 hPa Calm     96 % 0.0 mm 0 W/m2
02:25 9.0 °C 8.4 °C 1018.8 hPa Calm   1.6 km/h 96 % 0.0 mm 0 W/m2
02:30 9.1 °C 8.5 °C 1018.8 hPa Calm   1.6 km/h 96 % 0.0 mm 0 W/m2
02:35 9.2 °C 8.6 °C 1018.8 hPa Calm   1.6 km/h 96 % 0.0 mm 0 W/m2
02:40 9.3 °C 8.7 °C 1018.8 hPa Calm   1.6 km/h 96 % 0.0 mm 0 W/m2
02:45 9.3 °C 8.7 °C 1018.8 hPa Calm     96 % 0.0 mm 0 W/m2
02:50 9.3 °C 8.7 °C 1018.8 hPa Calm     96 % 0.0 mm 0 W/m2
02:55 9.3 °C 8.7 °C 1018.8 hPa Calm     96 % 0.0 mm 0 W/m2
03:00 9.2 °C 8.6 °C 1018.8 hPa Calm     96 % 0.0 mm 0 W/m2
03:05 9.1 °C 8.5 °C 1018.8 hPa Calm   1.6 km/h 96 % 0.0 mm 0 W/m2
03:10 9.2 °C 8.6 °C 1018.8 hPa Calm   1.6 km/h 96 % 0.0 mm 0 W/m2
03:15 9.1 °C 8.5 °C 1018.8 hPa Calm   1.6 km/h 96 % 0.0 mm 0 W/m2
03:20 9.2 °C 8.6 °C 1018.8 hPa Calm   1.6 km/h 96 % 0.0 mm 0 W/m2
03:25 9.2 °C 8.6 °C 1018.8 hPa Calm   1.6 km/h 96 % 0.0 mm 0 W/m2
03:30 9.2 °C 8.6 °C 1018.5 hPa Calm   1.6 km/h 96 % 0.0 mm 0 W/m2
03:35 9.1 °C 8.5 °C 1018.5 hPa Calm     96 % 0.0 mm 0 W/m2
03:40 9.1 °C 8.6 °C 1018.8 hPa Calm   3.2 km/h 97 % 0.0 mm 0 W/m2
03:45 9.1 °C 8.6 °C 1018.5 hPa Calm   3.2 km/h 97 % 0.0 mm 0 W/m2
03:50 9.1 °C 8.6 °C 1018.5 hPa Calm   1.6 km/h 97 % 0.0 mm 0 W/m2
03:55 9.0 °C 8.5 °C 1018.5 hPa Calm   1.6 km/h 97 % 0.0 mm 0 W/m2
04:00 8.9 °C 8.3 °C 1018.5 hPa Calm   3.2 km/h 96 % 0.0 mm 0 W/m2
04:05 8.9 °C 8.5 °C 1018.5 hPa Calm   3.2 km/h 97 % 0.0 mm 0 W/m2
04:10 9.0 °C 8.5 °C 1018.5 hPa Calm   3.2 km/h 97 % 0.0 mm 0 W/m2
04:15 9.2 °C 8.8 °C 1018.5 hPa Calm   3.2 km/h 97 % 0.0 mm 0 W/m2
04:20 9.4 °C 8.9 °C 1018.5 hPa NE 1.6 km/h 3.2 km/h 97 % 0.0 mm 0 W/m2
04:25 9.5 °C 9.0 °C 1018.5 hPa Calm   3.2 km/h 97 % 0.0 mm 0 W/m2
04:30 9.6 °C 9.2 °C 1018.5 hPa Calm   3.2 km/h 97 % 0.0 mm 0 W/m2
04:35 9.6 °C 9.1 °C 1018.5 hPa Calm   1.6 km/h 97 % 0.0 mm 0 W/m2
04:40 9.4 °C 8.8 °C 1018.5 hPa Calm     96 % 0.0 mm 0 W/m2
04:45 9.3 °C 8.7 °C 1018.5 hPa Calm   1.6 km/h 96 % 0.0 mm 0 W/m2
04:50 9.1 °C 8.5 °C 1018.5 hPa Calm   1.6 km/h 96 % 0.0 mm 0 W/m2
04:55 9.1 °C 8.7 °C 1018.5 hPa Calm   1.6 km/h 97 % 0.0 mm 0 W/m2
05:00 8.9 °C 8.3 °C 1018.5 hPa Calm   3.2 km/h 96 % 0.0 mm 0 W/m2
05:05 8.8 °C 8.2 °C 1018.5 hPa Calm   3.2 km/h 96 % 0.0 mm 0 W/m2
05:10 8.6 °C 8.0 °C 1018.5 hPa Calm   3.2 km/h 96 % 0.0 mm 0 W/m2
05:15 8.4 °C 7.8 °C 1018.5 hPa ENE 1.6 km/h 3.2 km/h 96 % 0.0 mm 0 W/m2
05:20 8.3 °C 7.7 °C 1018.2 hPa Calm   1.6 km/h 96 % 0.0 mm 0 W/m2
05:25 8.2 °C 7.6 °C 1018.5 hPa Calm   3.2 km/h 96 % 0.0 mm 0 W/m2
05:30 8.0 °C 7.4 °C 1018.5 hPa Calm   3.2 km/h 96 % 0.0 mm 0 W/m2
05:35 7.9 °C 7.3 °C 1018.2 hPa Calm   1.6 km/h 96 % 0.0 mm 0 W/m2
05:40 7.8 °C 7.2 °C 1018.2 hPa Calm   1.6 km/h 96 % 0.0 mm 0 W/m2
05:45 7.6 °C 7.0 °C 1018.2 hPa Calm   1.6 km/h 96 % 0.0 mm 0 W/m2
05:50 7.4 °C 6.8 °C 1018.2 hPa Calm     96 % 0.0 mm 0 W/m2
05:55 7.4 °C 7.0 °C 1018.2 hPa Calm     97 % 0.0 mm 0 W/m2
06:00 7.3 °C 6.7 °C 1018.2 hPa Calm     96 % 0.0 mm 0 W/m2
06:05 7.2 °C 6.6 °C 1018.2 hPa Calm     96 % 0.0 mm 0 W/m2
06:10 7.1 °C 6.6 °C 1018.2 hPa Calm     97 % 0.0 mm 0 W/m2
06:15 6.9 °C 6.3 °C 1018.2 hPa Calm     96 % 0.0 mm 0 W/m2
06:20 6.8 °C 6.4 °C 1018.2 hPa Calm     97 % 0.0 mm 0 W/m2
06:25 6.8 °C 6.3 °C 1018.2 hPa Calm     97 % 0.0 mm 0 W/m2
06:30 6.6 °C 6.0 °C 1018.2 hPa Calm     96 % 0.0 mm 0 W/m2
06:35 6.6 °C 6.1 °C 1018.2 hPa Calm     97 % 0.0 mm 0 W/m2
06:40 6.6 °C 6.1 °C 1018.2 hPa Calm     97 % 0.0 mm 0 W/m2
06:50 6.2 °C 5.6 °C 1018.2 hPa Calm     96 % 0.0 mm 0 W/m2
06:55 6.2 °C 5.7 °C 1018.2 hPa Calm     97 % 0.0 mm 5 W/m2
07:00 5.9 °C 5.5 °C 1018.2 hPa Calm     97 % 0.0 mm 9 W/m2
07:05 5.9 °C 5.4 °C 1018.2 hPa Calm     97 % 0.0 mm 12 W/m2
07:10 6.0 °C 5.6 °C 1018.2 hPa Calm     97 % 0.0 mm 14 W/m2
07:15 6.1 °C 5.6 °C 1018.2 hPa Calm     97 % 0.0 mm 18 W/m2
07:20 6.2 °C 5.7 °C 1018.2 hPa Calm     97 % 0.0 mm 21 W/m2
07:25 6.3 °C 5.9 °C 1018.2 hPa Calm     97 % 0.0 mm 26 W/m2
07:30 6.3 °C 5.8 °C 1018.2 hPa Calm     97 % 0.0 mm 28 W/m2
07:40 6.4 °C 6.0 °C 1018.2 hPa Calm     97 % 0.0 mm 32 W/m2
07:45 6.5 °C 6.1 °C 1018.5 hPa Calm     97 % 0.0 mm 33 W/m2
07:50 6.8 °C 6.3 °C 1018.5 hPa Calm   1.6 km/h 97 % 0.0 mm 35 W/m2
07:55 6.8 °C 6.4 °C 1018.5 hPa Calm   1.6 km/h 97 % 0.0 mm 37 W/m2
08:00 7.1 °C 6.8 °C 1018.5 hPa Calm     98 % 0.0 mm 39 W/m2
08:05 7.5 °C 7.2 °C 1018.5 hPa Calm   1.6 km/h 98 % 0.0 mm 40 W/m2
08:10 8.1 °C 7.8 °C 1018.5 hPa Calm   1.6 km/h 98 % 0.0 mm 42 W/m2
08:15 8.4 °C 8.1 °C 1018.5 hPa Calm   3.2 km/h 98 % 0.0 mm 42 W/m2
08:20 8.7 °C 8.4 °C 1018.5 hPa Calm   3.2 km/h 98 % 0.0 mm 44 W/m2
08:25 8.9 °C 8.6 °C 1018.5 hPa Calm   3.2 km/h 98 % 0.0 mm 46 W/m2
08:30 9.2 °C 8.9 °C 1018.5 hPa Calm   3.2 km/h 98 % 0.0 mm 225 W/m2
08:35 9.6 °C 9.3 °C 1018.5 hPa Calm   3.2 km/h 98 % 0.0 mm 241 W/m2
08:40 9.7 °C 9.3 °C 1018.5 hPa ENE 4.8 km/h 4.8 km/h 97 % 0.0 mm 255 W/m2
08:50 10.1 °C 9.6 °C 1018.8 hPa ENE 4.8 km/h 8.0 km/h 97 % 0.0 mm 279 W/m2
08:55 10.1 °C 9.5 °C 1018.5 hPa NE 4.8 km/h 8.0 km/h 96 % 0.0 mm 295 W/m2
09:00 10.2 °C 9.6 °C 1018.8 hPa NNE 4.8 km/h 9.7 km/h 96 % 0.0 mm 315 W/m2
09:05 10.3 °C 9.5 °C 1018.8 hPa Calm   9.7 km/h 95 % 0.0 mm 332 W/m2
09:10 10.6 °C 9.8 °C 1018.8 hPa NNE 4.8 km/h 9.7 km/h 95 % 0.0 mm 345 W/m2
09:15 10.7 °C 9.6 °C 1018.8 hPa North 3.2 km/h 9.7 km/h 93 % 0.0 mm 353 W/m2
09:20 10.8 °C 9.6 °C 1018.8 hPa NNW 3.2 km/h 9.7 km/h 92 % 0.0 mm 362 W/m2
09:25 11.2 °C 9.9 °C 1018.8 hPa North 4.8 km/h 9.7 km/h 92 % 0.0 mm 376 W/m2
09:30 11.4 °C 10.0 °C 1018.8 hPa Calm   9.7 km/h 91 % 0.0 mm 399 W/m2
09:35 11.6 °C 10.0 °C 1018.8 hPa North 3.2 km/h 9.7 km/h 90 % 0.0 mm 408 W/m2
09:40 11.9 °C 10.2 °C 1018.8 hPa NNW 4.8 km/h 8.0 km/h 89 % 0.0 mm 429 W/m2
09:50 12.1 °C 9.7 °C 1018.8 hPa NNE 4.8 km/h 16.1 km/h 85 % 0.0 mm 466 W/m2
09:55 12.2 °C 9.9 °C 1018.8 hPa North 3.2 km/h 16.1 km/h 86 % 0.0 mm 490 W/m2
10:00 12.6 °C 10.1 °C 1018.8 hPa NNE 6.4 km/h 11.3 km/h 85 % 0.0 mm 506 W/m2
10:05 12.8 °C 10.4 °C 1018.8 hPa NNW 1.6 km/h 11.3 km/h 85 % 0.0 mm 566 W/m2
10:10 13.3 °C 10.6 °C 1018.8 hPa ENE 3.2 km/h 11.3 km/h 84 % 0.0 mm 603 W/m2
10:15 13.6 °C 10.8 °C 1018.8 hPa NE 6.4 km/h 12.9 km/h 83 % 0.0 mm 619 W/m2
10:20 13.8 °C 10.8 °C 1018.8 hPa ENE 6.4 km/h 12.9 km/h 82 % 0.0 mm 606 W/m2
10:25 14.0 °C 10.8 °C 1018.8 hPa NNE 4.8 km/h 12.9 km/h 81 % 0.0 mm 592 W/m2
10:30 13.9 °C 10.3 °C 1018.8 hPa NNE 6.4 km/h 12.9 km/h 79 % 0.0 mm 578 W/m2
10:35 14.1 °C 10.3 °C 1018.5 hPa NNE 9.7 km/h 12.9 km/h 78 % 0.0 mm 570 W/m2
10:40 14.2 °C 10.6 °C 1018.5 hPa North 8.0 km/h 11.3 km/h 79 % 0.0 mm 594 W/m2
10:45 14.5 °C 10.7 °C 1018.5 hPa NE 4.8 km/h 12.9 km/h 78 % 0.0 mm 608 W/m2
10:50 14.7 °C 10.7 °C 1018.8 hPa East 4.8 km/h 12.9 km/h 77 % 0.0 mm 631 W/m2
10:55 14.6 °C 10.4 °C 1018.5 hPa ENE 11.3 km/h 14.5 km/h 76 % 0.0 mm 619 W/m2
11:00 14.6 °C 10.2 °C 1018.8 hPa NE 9.7 km/h 14.5 km/h 75 % 0.0 mm 645 W/m2
11:05 14.7 °C 10.1 °C 1018.5 hPa NNE 1.6 km/h 12.9 km/h 74 % 0.0 mm 649 W/m2
11:10 14.9 °C 10.3 °C 1018.5 hPa ENE 6.4 km/h 12.9 km/h 74 % 0.0 mm 664 W/m2
11:15 15.3 °C 11.1 °C 1018.5 hPa ENE 6.4 km/h 11.3 km/h 76 % 0.0 mm 682 W/m2
11:20 15.5 °C 11.1 °C 1018.8 hPa NE 4.8 km/h 12.9 km/h 75 % 0.0 mm 689 W/m2
11:25 15.7 °C 10.6 °C 1018.5 hPa NNE 1.6 km/h 12.9 km/h 72 % 0.0 mm 691 W/m2
11:30 15.7 °C 10.7 °C 1018.8 hPa NNW 6.4 km/h 11.3 km/h 72 % 0.0 mm 707 W/m2
11:35 15.8 °C 10.7 °C 1018.5 hPa ENE 6.4 km/h 11.3 km/h 72 % 0.0 mm 715 W/m2
11:40 16.0 °C 11.0 °C 1018.5 hPa NE 1.6 km/h 11.3 km/h 72 % 0.0 mm 733 W/m2
11:45 16.0 °C 10.5 °C 1018.5 hPa Calm   9.7 km/h 70 % 0.0 mm 735 W/m2
11:50 16.3 °C 10.8 °C 1018.5 hPa North 4.8 km/h 11.3 km/h 70 % 0.0 mm 742 W/m2
11:55 16.3 °C 10.6 °C 1018.5 hPa NNE 1.6 km/h 11.3 km/h 69 % 0.0 mm 752 W/m2
12:00 16.5 °C 11.6 °C 1018.5 hPa NNE 4.8 km/h 9.7 km/h 73 % 0.0 mm 777 W/m2
12:05 17.0 °C 11.5 °C 1018.5 hPa NNW 6.4 km/h 12.9 km/h 70 % 0.0 mm 793 W/m2
12:10 17.3 °C 11.1 °C 1018.5 hPa Calm   12.9 km/h 67 % 0.0 mm 835 W/m2
12:15 17.7 °C 11.5 °C 1018.5 hPa NW 4.8 km/h 14.5 km/h 67 % 0.0 mm 823 W/m2
12:20 17.2 °C 10.6 °C 1018.5 hPa ENE 6.4 km/h 14.5 km/h 65 % 0.0 mm 844 W/m2
12:25 16.7 °C 10.5 °C 1018.5 hPa NE 4.8 km/h 14.5 km/h 67 % 0.0 mm 221 W/m2
12:30 15.9 °C 9.8 °C 1018.5 hPa Calm   12.9 km/h 67 % 0.0 mm 272 W/m2
12:35 16.1 °C 10.4 °C 1018.5 hPa NNE 8.0 km/h 14.5 km/h 69 % 0.0 mm 229 W/m2
12:40 16.2 °C 10.9 °C 1018.5 hPa NNE 11.3 km/h 14.5 km/h 71 % 0.0 mm 1011 W/m2
12:45 17.1 °C 11.8 °C 1018.5 hPa North 11.3 km/h 12.9 km/h 71 % 0.0 mm 582 W/m2
12:50 17.7 °C 12.1 °C 1018.5 hPa Calm   12.9 km/h 70 % 0.0 mm 1018 W/m2
12:55 17.9 °C 11.7 °C 1018.2 hPa NW 3.2 km/h 11.3 km/h 67 % 0.0 mm 965 W/m2
13:00 17.3 °C 10.6 °C 1018.2 hPa NNE 8.0 km/h 14.5 km/h 65 % 0.0 mm 253 W/m2
13:10 15.9 °C 10.4 °C 1018.2 hPa NNW 4.8 km/h 11.3 km/h 70 % 0.0 mm 220 W/m2
13:15 16.2 °C 10.9 °C 1018.2 hPa NNW 3.2 km/h 12.9 km/h 71 % 0.0 mm 213 W/m2
13:20 16.4 °C 11.4 °C 1018.2 hPa Calm   12.9 km/h 72 % 0.0 mm 738 W/m2
13:25 17.1 °C 10.9 °C 1018.2 hPa North 4.8 km/h 11.3 km/h 67 % 0.0 mm 900 W/m2
13:30 17.7 °C 10.3 °C 1018.2 hPa North 1.6 km/h 14.5 km/h 62 % 0.0 mm 874 W/m2
13:35 18.2 °C 10.8 °C 1018.2 hPa NNE 1.6 km/h 14.5 km/h 62 % 0.0 mm 918 W/m2
13:40 18.2 °C 11.8 °C 1017.8 hPa NE 6.4 km/h 12.9 km/h 66 % 0.0 mm 926 W/m2
13:45 18.3 °C 10.4 °C 1017.8 hPa NE 9.7 km/h 17.7 km/h 60 % 0.0 mm 195 W/m2
13:50 17.8 °C 10.9 °C 1017.8 hPa West 6.4 km/h 17.7 km/h 64 % 0.0 mm 932 W/m2
13:55 18.1 °C 9.5 °C 1017.8 hPa Calm   11.3 km/h 57 % 0.0 mm 979 W/m2
14:00 18.4 °C 10.0 °C 1017.8 hPa NNE 4.8 km/h 14.5 km/h 58 % 0.0 mm 272 W/m2
14:05 17.4 °C 9.8 °C 1017.8 hPa NNE 9.7 km/h 14.5 km/h 61 % 0.0 mm 176 W/m2
14:10 16.5 °C 9.4 °C 1017.8 hPa NNW 1.6 km/h 11.3 km/h 63 % 0.0 mm 183 W/m2
14:15 16.4 °C 9.8 °C 1017.5 hPa North 6.4 km/h 11.3 km/h 65 % 0.0 mm 207 W/m2
14:20 17.9 °C 11.0 °C 1017.5 hPa WNW 8.0 km/h 12.9 km/h 64 % 0.0 mm 940 W/m2
14:25 19.0 °C 9.8 °C 1017.5 hPa NW 1.6 km/h 12.9 km/h 55 % 0.0 mm 237 W/m2
14:30 18.0 °C 8.5 °C 1017.5 hPa NNE 8.0 km/h 12.9 km/h 54 % 0.0 mm 1023 W/m2
14:35 18.8 °C 12.3 °C 1017.5 hPa NW 4.8 km/h 12.9 km/h 66 % 0.0 mm 1065 W/m2
14:40 18.9 °C 11.0 °C 1017.5 hPa WNW 8.0 km/h 14.5 km/h 60 % 0.0 mm 1083 W/m2
14:45 18.4 °C 11.3 °C 1017.5 hPa WNW 9.7 km/h 14.5 km/h 63 % 0.0 mm 1088 W/m2
14:50 17.2 °C 11.5 °C 1017.5 hPa West 11.3 km/h 19.3 km/h 69 % 0.0 mm 246 W/m2
14:55 16.3 °C 11.0 °C 1017.5 hPa West 8.0 km/h 19.3 km/h 71 % 0.0 mm 234 W/m2
15:00 16.1 °C 11.5 °C 1017.5 hPa NW 6.4 km/h 16.1 km/h 74 % 0.0 mm 260 W/m2
15:05 16.1 °C 10.8 °C 1017.5 hPa NW 3.2 km/h 11.3 km/h 71 % 0.0 mm 301 W/m2
15:10 16.1 °C 11.1 °C 1017.5 hPa NW 8.0 km/h 12.9 km/h 72 % 0.0 mm 329 W/m2
15:15 17.3 °C 12.0 °C 1017.2 hPa NW 3.2 km/h 12.9 km/h 71 % 0.0 mm 408 W/m2
15:20 17.5 °C 11.5 °C 1017.2 hPa Calm   9.7 km/h 68 % 0.0 mm 452 W/m2
15:25 17.6 °C 11.4 °C 1017.2 hPa West 6.4 km/h 12.9 km/h 67 % 0.0 mm 747 W/m2
15:30 18.0 °C 12.4 °C 1017.2 hPa WNW 4.8 km/h 12.9 km/h 70 % 0.0 mm 853 W/m2
15:35 17.9 °C 11.0 °C 1017.2 hPa WNW 9.7 km/h 14.5 km/h 64 % 0.0 mm 817 W/m2
15:40 17.8 °C 10.4 °C 1017.2 hPa West 14.5 km/h 16.1 km/h 62 % 0.0 mm 816 W/m2
15:45 17.8 °C 11.6 °C 1017.2 hPa West 8.0 km/h 16.1 km/h 67 % 0.0 mm 816 W/m2
15:50 17.9 °C 11.3 °C 1017.2 hPa WNW 11.3 km/h 14.5 km/h 65 % 0.0 mm 824 W/m2
15:55 18.5 °C 11.3 °C 1017.2 hPa West 8.0 km/h 12.9 km/h 63 % 0.0 mm 823 W/m2
16:00 18.3 °C 10.9 °C 1017.2 hPa WSW 9.7 km/h 16.1 km/h 62 % 0.0 mm 870 W/m2
16:05 18.2 °C 11.1 °C 1017.2 hPa WSW 11.3 km/h 16.1 km/h 63 % 0.0 mm 874 W/m2
16:10 18.6 °C 10.4 °C 1016.8 hPa WSW 9.7 km/h 20.9 km/h 59 % 0.0 mm 867 W/m2
16:15 18.2 °C 10.5 °C 1016.8 hPa West 4.8 km/h 20.9 km/h 61 % 0.0 mm 875 W/m2
16:20 17.7 °C 11.3 °C 1016.8 hPa West 4.8 km/h 22.5 km/h 66 % 0.0 mm 881 W/m2
16:25 17.9 °C 11.0 °C 1016.8 hPa WSW 12.9 km/h 22.5 km/h 64 % 0.0 mm 670 W/m2
16:30 17.4 °C 11.7 °C 1016.8 hPa West 3.2 km/h 19.3 km/h 69 % 0.0 mm 183 W/m2
16:35 16.7 °C 11.0 °C 1016.8 hPa West 9.7 km/h 19.3 km/h 69 % 0.0 mm 149 W/m2
16:40 16.1 °C 10.8 °C 1016.8 hPa WNW 1.6 km/h 14.5 km/h 71 % 0.0 mm 121 W/m2
16:45 15.9 °C 11.3 °C 1017.2 hPa NW 3.2 km/h 14.5 km/h 74 % 0.0 mm 107 W/m2
16:55 15.7 °C 10.0 °C 1017.2 hPa NE 4.8 km/h 14.5 km/h 69 % 0.0 mm 98 W/m2
17:00 15.6 °C 10.4 °C 1016.8 hPa NW 3.2 km/h 12.9 km/h 71 % 0.0 mm 88 W/m2
17:05 15.4 °C 8.7 °C 1016.8 hPa NNW 1.6 km/h 14.5 km/h 64 % 0.0 mm 93 W/m2
17:10 15.4 °C 8.7 °C 1016.8 hPa NNE 4.8 km/h 14.5 km/h 64 % 0.0 mm 102 W/m2
17:15 15.4 °C 8.4 °C 1016.8 hPa NE 9.7 km/h 14.5 km/h 63 % 0.0 mm 97 W/m2
17:20 15.3 °C 9.0 °C 1016.8 hPa NNE 12.9 km/h 16.1 km/h 66 % 0.0 mm 98 W/m2
17:25 15.3 °C 9.0 °C 1016.8 hPa NNE 3.2 km/h 19.3 km/h 66 % 0.0 mm 90 W/m2
17:30 15.3 °C 9.0 °C 1016.8 hPa NE 12.9 km/h 19.3 km/h 66 % 0.0 mm 97 W/m2
17:35 15.2 °C 9.1 °C 1016.8 hPa North 3.2 km/h 19.3 km/h 67 % 0.0 mm 93 W/m2
17:40 15.1 °C 9.2 °C 1016.8 hPa NNE 8.0 km/h 19.3 km/h 68 % 0.0 mm 83 W/m2
17:45 15.0 °C 9.1 °C 1016.8 hPa NE 9.7 km/h 19.3 km/h 68 % 0.0 mm 77 W/m2
17:50 14.9 °C 9.5 °C 1016.8 hPa NNE 6.4 km/h 14.5 km/h 70 % 0.0 mm 77 W/m2
17:55 14.9 °C 9.7 °C 1016.8 hPa NE 3.2 km/h 12.9 km/h 71 % 0.0 mm 84 W/m2
18:00 14.9 °C 9.5 °C 1016.8 hPa Calm   11.3 km/h 70 % 0.0 mm 98 W/m2
18:05 14.9 °C 9.9 °C 1016.8 hPa NE 6.4 km/h 11.3 km/h 72 % 0.0 mm 113 W/m2
18:10 15.1 °C 10.0 °C 1016.8 hPa East 6.4 km/h 12.9 km/h 72 % 0.0 mm 113 W/m2
18:15 15.0 °C 9.6 °C 1016.8 hPa East 4.8 km/h 12.9 km/h 70 % 0.0 mm 111 W/m2
18:20 14.9 °C 9.3 °C 1017.2 hPa East 8.0 km/h 17.7 km/h 69 % 0.0 mm 104 W/m2
18:25 14.8 °C 9.2 °C 1016.8 hPa ENE 4.8 km/h 17.7 km/h 69 % 0.0 mm 113 W/m2
18:30 14.9 °C 9.2 °C 1016.8 hPa NE 6.4 km/h 16.1 km/h 69 % 0.0 mm 221 W/m2
18:35 15.3 °C 9.5 °C 1016.8 hPa ENE 8.0 km/h 16.1 km/h 68 % 0.0 mm 404 W/m2
18:40 16.1 °C 9.7 °C 1016.8 hPa ENE 8.0 km/h 16.1 km/h 66 % 0.0 mm 311 W/m2
18:45 16.2 °C 9.6 °C 1016.8 hPa ESE 9.7 km/h 16.1 km/h 65 % 0.0 mm 304 W/m2
18:55 15.7 °C 9.3 °C 1016.8 hPa NE 6.4 km/h 17.7 km/h 66 % 0.0 mm 192 W/m2
19:00 15.4 °C 9.3 °C 1016.8 hPa North 9.7 km/h 17.7 km/h 67 % 0.0 mm 193 W/m2
19:05 15.6 °C 9.7 °C 1016.8 hPa NE 6.4 km/h 17.7 km/h 68 % 0.0 mm 172 W/m2
19:10 15.7 °C 9.4 °C 1016.8 hPa NE 4.8 km/h 14.5 km/h 66 % 0.0 mm 192 W/m2
19:15 15.9 °C 9.4 °C 1016.8 hPa NE 9.7 km/h 14.5 km/h 65 % 0.0 mm 253 W/m2
19:20 15.8 °C 9.2 °C 1016.8 hPa NE 3.2 km/h 16.1 km/h 65 % 0.0 mm 218 W/m2
19:25 15.8 °C 9.7 °C 1016.8 hPa ENE 8.0 km/h 16.1 km/h 67 % 0.0 mm 128 W/m2
19:30 15.3 °C 9.2 °C 1016.8 hPa NNE 6.4 km/h 17.7 km/h 67 % 0.0 mm 114 W/m2
19:35 15.0 °C 9.1 °C 1016.8 hPa ENE 8.0 km/h 19.3 km/h 68 % 0.0 mm 90 W/m2
19:40 14.8 °C 9.4 °C 1016.8 hPa NNE 8.0 km/h 20.9 km/h 70 % 0.0 mm 77 W/m2
19:45 14.7 °C 9.3 °C 1016.8 hPa East 3.2 km/h 20.9 km/h 70 % 0.0 mm 79 W/m2
19:50 14.6 °C 9.1 °C 1016.8 hPa NNE 3.2 km/h 17.7 km/h 70 % 0.0 mm 84 W/m2
19:55 14.5 °C 9.1 °C 1016.8 hPa NE 6.4 km/h 17.7 km/h 70 % 0.0 mm 97 W/m2
20:00 14.4 °C 9.0 °C 1016.8 hPa ENE 6.4 km/h 16.1 km/h 70 % 0.0 mm 97 W/m2
20:05 14.4 °C 9.0 °C 1016.8 hPa ENE 4.8 km/h 16.1 km/h 70 % 0.0 mm 102 W/m2
20:10 14.3 °C 9.1 °C 1016.8 hPa ENE 8.0 km/h 16.1 km/h 71 % 0.0 mm 86 W/m2
20:15 14.2 °C 9.0 °C 1017.2 hPa NNE 3.2 km/h 16.1 km/h 71 % 0.0 mm 84 W/m2
20:25 13.9 °C 8.9 °C 1017.2 hPa NE 8.0 km/h 19.3 km/h 72 % 0.0 mm 44 W/m2
20:30 13.7 °C 8.7 °C 1017.2 hPa NE 11.3 km/h 19.3 km/h 72 % 0.0 mm 35 W/m2
20:35 13.5 °C 8.3 °C 1017.2 hPa ESE 4.8 km/h 16.1 km/h 71 % 0.0 mm 30 W/m2
20:40 13.3 °C 8.2 °C 1017.2 hPa NNE 1.6 km/h 19.3 km/h 71 % 0.0 mm 26 W/m2
20:45 13.2 °C 8.1 °C 1017.2 hPa NE 1.6 km/h 19.3 km/h 71 % 0.0 mm 25 W/m2
20:50 13.1 °C 7.9 °C 1017.2 hPa NE 6.4 km/h 19.3 km/h 71 % 0.0 mm 21 W/m2
20:55 12.9 °C 7.8 °C 1017.2 hPa NNE 8.0 km/h 14.5 km/h 71 % 0.0 mm 18 W/m2
21:00 12.7 °C 7.8 °C 1017.2 hPa NE 8.0 km/h 14.5 km/h 72 % 0.0 mm 14 W/m2
21:05 12.6 °C 7.7 °C 1017.2 hPa North 8.0 km/h 12.9 km/h 72 % 0.0 mm 11 W/m2
21:10 12.4 °C 7.5 °C 1017.2 hPa NE 3.2 km/h 14.5 km/h 72 % 0.0 mm 9 W/m2
21:15 12.3 °C 7.4 °C 1017.2 hPa NNE 1.6 km/h 14.5 km/h 72 % 0.0 mm 5 W/m2
21:20 12.1 °C 7.4 °C 1017.2 hPa NNE 9.7 km/h 12.9 km/h 73 % 0.0 mm 0 W/m2
21:25 11.9 °C 7.3 °C 1017.2 hPa NNE 6.4 km/h 12.9 km/h 73 % 0.0 mm 0 W/m2
21:30 11.9 °C 7.1 °C 1017.2 hPa NNE 3.2 km/h 14.5 km/h 72 % 0.0 mm 0 W/m2
21:35 11.9 °C 7.0 °C 1017.2 hPa NNE 8.0 km/h 14.5 km/h 72 % 0.0 mm 0 W/m2
21:45 11.8 °C 6.9 °C 1017.5 hPa North 4.8 km/h 14.5 km/h 72 % 0.0 mm 0 W/m2
21:50 11.7 °C 6.8 °C 1017.5 hPa NNE 6.4 km/h 14.5 km/h 72 % 0.0 mm 0 W/m2
21:55 11.7 °C 6.8 °C 1017.5 hPa Calm   9.7 km/h 72 % 0.0 mm 0 W/m2
22:00 11.7 °C 6.8 °C 1017.5 hPa NE 1.6 km/h 9.7 km/h 72 % 0.0 mm 0 W/m2
22:05 11.6 °C 6.7 °C 1017.5 hPa ENE 1.6 km/h 9.7 km/h 72 % 0.0 mm 0 W/m2
22:10 11.7 °C 6.8 °C 1017.5 hPa NNE 4.8 km/h 9.7 km/h 72 % 0.0 mm 0 W/m2
22:15 11.6 °C 6.7 °C 1017.8 hPa NNE 3.2 km/h 14.5 km/h 72 % 0.0 mm 0 W/m2
22:20 11.5 °C 6.8 °C 1017.5 hPa NNE 4.8 km/h 14.5 km/h 73 % 0.0 mm 0 W/m2
22:25 11.5 °C 6.8 °C 1017.8 hPa NNE 9.7 km/h 14.5 km/h 73 % 0.0 mm 0 W/m2
22:30 11.6 °C 6.9 °C 1017.8 hPa North 9.7 km/h 14.5 km/h 73 % 0.0 mm 0 W/m2
22:35 11.6 °C 7.1 °C 1017.8 hPa NNE 3.2 km/h 19.3 km/h 74 % 0.0 mm 0 W/m2
22:40 11.7 °C 7.0 °C 1017.8 hPa North 12.9 km/h 19.3 km/h 73 % 0.0 mm 0 W/m2
22:45 11.8 °C 7.3 °C 1017.8 hPa NNE 8.0 km/h 19.3 km/h 74 % 0.0 mm 0 W/m2
22:50 11.8 °C 7.5 °C 1017.8 hPa North 9.7 km/h 19.3 km/h 75 % 0.0 mm 0 W/m2
22:55 11.8 °C 7.5 °C 1017.8 hPa North 3.2 km/h 25.7 km/h 75 % 0.0 mm 0 W/m2
23:00 11.8 °C 7.7 °C 1017.8 hPa North 8.0 km/h 25.7 km/h 76 % 0.0 mm 0 W/m2
23:05 11.8 °C 7.7 °C 1017.8 hPa NE 8.0 km/h 22.5 km/h 76 % 0.0 mm 0 W/m2
23:10 11.8 °C 7.7 °C 1017.8 hPa NE 9.7 km/h 22.5 km/h 76 % 0.0 mm 0 W/m2
23:15 11.7 °C 7.8 °C 1017.8 hPa NNE 16.1 km/h 17.7 km/h 77 % 0.0 mm 0 W/m2
23:20 11.6 °C 7.7 °C 1017.8 hPa NNE 12.9 km/h 17.7 km/h 77 % 0.0 mm 0 W/m2
23:25 11.4 °C 7.7 °C 1017.8 hPa ENE 6.4 km/h 17.7 km/h 78 % 0.0 mm 0 W/m2
23:30 11.2 °C 7.5 °C 1017.8 hPa North 9.7 km/h 17.7 km/h 78 % 0.0 mm 0 W/m2
23:35 11.1 °C 7.6 °C 1017.8 hPa North 6.4 km/h 16.1 km/h 79 % 0.0 mm 0 W/m2
23:40 10.9 °C 7.4 °C 1017.8 hPa NE 11.3 km/h 16.1 km/h 79 % 0.0 mm 0 W/m2
23:45 10.7 °C 7.4 °C 1017.8 hPa NNW 4.8 km/h 16.1 km/h 80 % 0.0 mm 0 W/m2
23:50 10.6 °C 7.2 °C 1017.8 hPa North 6.4 km/h 14.5 km/h 80 % 0.0 mm 0 W/m2
23:55 10.4 °C 7.3 °C 1017.8 hPa NE 3.2 km/h 14.5 km/h 81 % 0.0 mm 0 W/m2
Avec l'autorisation de Weather Underground - 1.75 mb